Time;durP1;ratioP1;P1;durP2;ratioP2;P2;SDS_P1;SDS_P2;PMS_P1;PMS_P2;Temp;Humidity;BMP_temperature;BMP_pressure;BME280_temperature;BME280_humidity;BME280_pressure;Samples;Min_cycle;Max_cycle;Signal;HPM_P1;HPM_P2
2022/09/02 00:00:45;;;;;;;0.80;0.10;;;18.70;77.40;;;;;;5026926;28;20030;-72
2022/09/02 00:03:11;;;;;;;3.45;0.20;;;18.70;77.30;;;;;;5025079;28;20794;-71
2022/09/02 00:05:37;;;;;;;0.85;0.13;;;18.70;77.40;;;;;;5026192;28;20123;-69
2022/09/02 00:08:03;;;;;;;1.00;0.15;;;18.70;77.60;;;;;;5024776;28;20561;-70
2022/09/02 00:10:29;;;;;;;2.90;1.08;;;18.60;77.50;;;;;;5028236;28;20034;-70
2022/09/02 00:12:55;;;;;;;1.90;0.10;;;18.60;77.70;;;;;;5029274;28;20042;-72
2022/09/02 00:15:20;;;;;;;1.50;0.30;;;18.60;77.60;;;;;;5027004;28;20125;-71
2022/09/02 00:17:46;;;;;;;1.15;0.20;;;18.60;77.70;;;;;;5029221;28;20437;-71
2022/09/02 00:20:12;;;;;;;4.32;0.30;;;18.60;77.70;;;;;;5029383;28;20033;-68
2022/09/02 00:22:38;;;;;;;0.57;0.10;;;18.60;77.70;;;;;;5029304;28;20033;-69
2022/09/02 00:25:04;;;;;;;3.70;0.20;;;18.60;77.80;;;;;;5028781;28;20033;-69
2022/09/02 00:27:30;;;;;;;0.20;0.10;;;18.50;77.90;;;;;;5038275;28;20072;-71
2022/09/02 00:29:55;;;;;;;0.10;0.10;;;18.40;78.10;;;;;;5040133;28;20044;-70
2022/09/02 00:32:21;;;;;;;1.30;0.30;;;18.40;78.20;;;;;;5037498;28;20057;-69
2022/09/02 00:34:47;;;;;;;2.13;0.20;;;18.40;78.20;;;;;;5031878;28;20033;-72
2022/09/02 00:37:13;;;;;;;0.65;0.10;;;18.40;78.80;;;;;;5028641;28;20025;-70
2022/09/02 00:39:39;;;;;;;2.03;0.25;;;18.40;78.30;;;;;;5028894;28;20532;-69
2022/09/02 00:42:05;;;;;;;0.20;0.10;;;18.40;78.60;;;;;;5028181;28;20448;-72
2022/09/02 00:44:32;;;;;;;0.20;0.08;;;18.30;78.70;;;;;;5028491;28;20132;-69
2022/09/02 00:46:59;;;;;;;0.30;0.10;;;18.30;79.00;;;;;;5024005;28;20140;-72
2022/09/02 00:49:27;;;;;;;1.33;0.10;;;18.30;78.90;;;;;;5026174;28;20037;-71
2022/09/02 00:52:02;;;;;;;3.10;0.20;;;18.20;79.10;;;;;;5032267;28;20119;-71
2022/09/02 00:54:31;;;;;;;0.40;0.17;;;18.20;79.10;;;;;;5029672;28;20041;-72
2022/09/02 00:56:58;;;;;;;1.77;0.20;;;18.10;79.30;;;;;;5032027;28;20464;-71
2022/09/02 00:59:38;;;;;;;0.82;0.38;;;18.10;79.30;;;;;;5024251;28;20037;-71
2022/09/02 01:02:08;;;;;;;;;;;18.10;79.30;;;;;;5023364;28;20038;-71
2022/09/02 01:04:34;;;;;;;0.50;0.10;;;18.00;79.40;;;;;;5024162;28;19917;-70
2022/09/02 01:07:01;;;;;;;0.82;0.13;;;18.00;79.70;;;;;;5027903;28;20039;-70
2022/09/02 01:09:27;;;;;;;0.50;0.30;;;18.00;79.80;;;;;;5028482;28;20092;-70
2022/09/02 01:11:53;;;;;;;1.02;0.10;;;17.90;80.10;;;;;;5024787;28;20508;-69
2022/09/02 01:14:20;;;;;;;0.22;0.17;;;17.90;80.10;;;;;;5024501;28;20388;-71
2022/09/02 01:16:53;;;;;;;1.58;0.20;;;17.80;80.30;;;;;;5028301;28;20038;-71
2022/09/02 01:19:27;;;;;;;0.25;0.10;;;17.80;80.40;;;;;;5027916;28;20830;-71
2022/09/02 01:21:54;;;;;;;2.08;0.30;;;17.70;80.60;;;;;;5022409;28;20084;-70
2022/09/02 01:24:22;;;;;;;1.55;0.20;;;17.70;80.90;;;;;;5025396;28;20033;-70
2022/09/02 01:26:51;;;;;;;0.35;0.15;;;17.70;80.90;;;;;;5028255;28;20030;-71
2022/09/02 01:29:17;;;;;;;0.80;0.20;;;17.60;81.00;;;;;;5027509;28;20056;-71
2022/09/02 01:31:42;;;;;;;0.40;0.10;;;17.60;81.30;;;;;;5028332;28;20073;-71
2022/09/02 01:34:08;;;;;;;0.32;0.10;;;17.50;81.40;;;;;;5025226;28;20025;-71
2022/09/02 01:36:38;;;;;;;1.48;0.45;;;17.50;81.30;;;;;;5027851;28;20041;-70
2022/09/02 01:39:03;;;;;;;2.33;0.10;;;17.50;81.30;;;;;;5022462;28;20116;-72
2022/09/02 01:41:29;;;;;;;1.50;0.10;;;17.40;81.60;;;;;;5027219;28;20553;-69
2022/09/02 01:43:55;;;;;;;0.75;0.35;;;17.40;81.80;;;;;;5027854;28;20167;-69
2022/09/02 01:46:22;;;;;;;0.93;0.50;;;17.40;81.80;;;;;;5025806;28;20450;-71
2022/09/02 01:48:48;;;;;;;0.63;0.10;;;17.30;81.90;;;;;;5028229;28;20501;-71
2022/09/02 01:51:19;;;;;;;0.55;0.10;;;17.30;82.20;;;;;;5034103;28;20609;-71
2022/09/02 01:53:46;;;;;;;0.75;0.20;;;17.30;81.90;;;;;;5037104;28;20517;-71
2022/09/02 01:56:12;;;;;;;3.50;0.10;;;17.30;82.10;;;;;;5035927;28;20026;-68
2022/09/02 01:58:37;;;;;;;2.38;0.10;;;17.30;82.10;;;;;;5025729;28;20037;-71
2022/09/02 02:01:03;;;;;;;3.13;0.20;;;17.30;81.70;;;;;;5027991;28;20029;-70
2022/09/02 02:03:29;;;;;;;2.78;0.20;;;17.30;81.70;;;;;;5027369;28;20045;-70
2022/09/02 02:05:55;;;;;;;0.73;0.10;;;17.30;81.70;;;;;;5027840;28;20528;-71
2022/09/02 02:08:21;;;;;;;1.17;0.40;;;17.30;81.70;;;;;;5027122;28;20041;-70
2022/09/02 02:10:47;;;;;;;1.27;0.10;;;17.40;81.80;;;;;;5031211;28;20516;-69
2022/09/02 02:13:12;;;;;;;1.50;0.25;;;17.30;81.60;;;;;;5032327;28;20025;-70
2022/09/02 02:15:39;;;;;;;0.45;0.08;;;17.30;81.80;;;;;;5033488;28;20083;-71
2022/09/02 02:18:05;;;;;;;2.70;0.17;;;17.30;81.70;;;;;;5032759;28;20378;-71
2022/09/02 02:20:31;;;;;;;1.20;0.15;;;17.30;81.70;;;;;;5032847;28;20044;-68
2022/09/02 02:22:57;;;;;;;3.55;0.15;;;17.30;82.00;;;;;;5031305;28;20033;-70
2022/09/02 02:25:22;;;;;;;0.68;0.10;;;17.20;82.00;;;;;;5029931;28;20147;-72
2022/09/02 02:27:48;;;;;;;0.85;0.35;;;17.20;82.10;;;;;;5030162;28;20041;-71
2022/09/02 02:30:15;;;;;;;0.38;0.10;;;17.20;82.20;;;;;;5025755;28;20040;-67
2022/09/02 02:32:43;;;;;;;1.40;0.40;;;17.20;82.70;;;;;;5024016;28;20540;-71
2022/09/02 02:35:10;;;;;;;1.70;0.40;;;17.20;82.00;;;;;;5024162;28;20037;-71
2022/09/02 02:37:36;;;;;;;0.28;0.10;;;17.10;82.40;;;;;;5025690;28;20396;-71
2022/09/02 02:40:03;;;;;;;2.58;0.20;;;17.10;82.20;;;;;;5024401;28;20092;-71
2022/09/02 02:42:29;;;;;;;0.98;0.30;;;17.10;82.50;;;;;;5025360;28;20401;-70
2022/09/02 02:44:55;;;;;;;2.28;0.40;;;17.10;82.40;;;;;;5026936;28;20040;-71
2022/09/02 02:47:21;;;;;;;2.03;0.13;;;17.10;82.70;;;;;;5024212;28;20035;-71
2022/09/02 02:49:46;;;;;;;0.50;0.10;;;17.10;82.60;;;;;;5022351;28;20064;-71
2022/09/02 02:52:12;;;;;;;0.30;0.10;;;17.10;82.40;;;;;;5025168;28;20107;-71
2022/09/02 02:54:39;;;;;;;0.38;0.20;;;17.10;82.60;;;;;;5023778;28;20044;-71
2022/09/02 02:57:06;;;;;;;1.20;0.20;;;17.10;82.70;;;;;;5022273;28;20034;-71
2022/09/02 02:59:32;;;;;;;0.43;0.10;;;17.00;82.90;;;;;;5017769;28;20112;-70
2022/09/02 03:01:58;;;;;;;2.20;0.40;;;16.90;83.10;;;;;;5026140;28;20033;-71
2022/09/02 03:04:23;;;;;;;3.00;0.35;;;16.90;83.10;;;;;;5024410;28;20036;-72
2022/09/02 03:06:50;;;;;;;1.38;0.35;;;16.90;83.20;;;;;;5025969;28;20037;-71
2022/09/02 03:09:16;;;;;;;2.47;0.30;;;16.90;82.90;;;;;;5021185;28;20501;-69
2022/09/02 03:11:41;;;;;;;0.30;0.10;;;16.90;83.00;;;;;;5025021;28;20033;-70
2022/09/02 03:14:07;;;;;;;2.05;0.20;;;16.90;83.00;;;;;;5023704;28;20033;-71
2022/09/02 03:16:34;;;;;;;2.15;0.10;;;16.90;83.10;;;;;;5026301;28;20034;-71
2022/09/02 03:19:00;;;;;;;3.38;0.20;;;16.90;83.20;;;;;;5025789;28;20037;-69
2022/09/02 03:21:26;;;;;;;1.75;0.47;;;16.90;83.30;;;;;;5025892;28;20094;-70
2022/09/02 03:23:52;;;;;;;3.28;0.20;;;16.80;83.40;;;;;;5024925;28;20059;-71
2022/09/02 03:26:22;;;;;;;4.72;0.32;;;16.80;83.60;;;;;;5025061;28;20513;-70
2022/09/02 03:28:48;;;;;;;2.15;0.15;;;16.80;83.60;;;;;;5022373;28;20029;-69
2022/09/02 03:31:18;;;;;;;3.30;0.45;;;16.70;83.80;;;;;;5023369;28;20498;-70
2022/09/02 03:33:43;;;;;;;0.43;0.10;;;16.70;83.90;;;;;;5024900;28;20030;-71
2022/09/02 03:36:28;;;;;;;1.35;0.20;;;16.70;83.80;;;;;;5023214;28;20852;-71
2022/09/02 03:38:54;;;;;;;2.38;0.20;;;16.70;83.90;;;;;;5021385;28;20120;-71
2022/09/02 03:41:20;;;;;;;0.95;0.10;;;16.60;84.10;;;;;;5031654;28;20113;-71
2022/09/02 03:43:46;;;;;;;0.55;0.13;;;16.60;84.00;;;;;;5032124;28;20044;-69
2022/09/02 03:46:12;;;;;;;0.75;0.10;;;16.60;84.10;;;;;;5031824;28;20037;-71
2022/09/02 03:48:39;;;;;;;0.85;0.10;;;16.60;84.20;;;;;;5031707;28;20041;-70
2022/09/02 03:51:05;;;;;;;1.75;0.10;;;16.60;84.30;;;;;;5028119;28;20029;-70
2022/09/02 03:53:31;;;;;;;1.33;0.20;;;16.60;84.40;;;;;;5029615;28;20034;-69
2022/09/02 03:55:58;;;;;;;0.60;0.10;;;16.50;84.40;;;;;;5029178;28;20026;-71
2022/09/02 03:58:23;;;;;;;0.90;0.20;;;16.50;84.70;;;;;;5026429;28;20056;-71
2022/09/02 04:00:51;;;;;;;2.38;0.20;;;16.50;84.70;;;;;;5029067;28;20061;-70
2022/09/02 04:03:17;;;;;;;0.38;0.20;;;16.50;84.70;;;;;;5024186;28;20378;-70
2022/09/02 04:05:46;;;;;;;0.50;0.30;;;16.40;84.80;;;;;;5025241;28;21008;-72
2022/09/02 04:08:12;;;;;;;2.22;0.30;;;16.40;84.90;;;;;;5016409;28;20025;-71
2022/09/02 04:10:38;;;;;;;2.67;0.32;;;16.30;85.00;;;;;;5024864;28;20049;-71
2022/09/02 04:13:03;;;;;;;2.05;0.30;;;16.40;85.00;;;;;;5022074;28;20386;-68
2022/09/02 04:15:32;;;;;;;1.60;0.28;;;16.30;85.20;;;;;;5018560;28;20041;-71
2022/09/02 04:17:58;;;;;;;2.53;0.30;;;16.30;85.20;;;;;;5020106;28;20088;-71
2022/09/02 04:20:25;;;;;;;0.95;0.20;;;16.30;85.50;;;;;;5022543;28;20041;-70
2022/09/02 04:22:50;;;;;;;1.42;0.20;;;16.30;85.50;;;;;;5024354;28;20061;-70
2022/09/02 04:25:16;;;;;;;1.33;0.15;;;16.20;85.70;;;;;;5023030;28;20505;-72
2022/09/02 04:27:42;;;;;;;0.28;0.10;;;16.20;85.80;;;;;;5023665;28;20026;-72
2022/09/02 04:30:08;;;;;;;3.38;0.20;;;16.20;85.70;;;;;;5024026;28;20045;-69
2022/09/02 04:32:35;;;;;;;1.30;0.10;;;16.20;85.70;;;;;;5022683;28;20036;-69
2022/09/02 04:35:01;;;;;;;4.22;0.20;;;16.20;85.70;;;;;;5024505;28;20037;-70
2022/09/02 04:37:26;;;;;;;1.52;0.28;;;16.20;85.80;;;;;;5024591;28;20036;-71
2022/09/02 04:39:52;;;;;;;0.45;0.10;;;16.20;85.90;;;;;;5024380;28;20045;-71
2022/09/02 04:42:18;;;;;;;0.57;0.20;;;16.20;86.00;;;;;;5024604;28;20068;-70
2022/09/02 04:44:45;;;;;;;1.23;0.20;;;16.20;86.00;;;;;;5022599;28;20137;-71
2022/09/02 04:47:11;;;;;;;0.82;0.20;;;16.20;86.00;;;;;;5022832;28;20113;-71
2022/09/02 04:49:37;;;;;;;0.73;0.20;;;16.20;86.00;;;;;;5024492;28;20045;-71
2022/09/02 04:52:03;;;;;;;0.30;0.10;;;16.20;86.10;;;;;;5024040;28;20038;-69
2022/09/02 04:54:29;;;;;;;0.77;0.20;;;16.20;86.00;;;;;;5024361;28;20029;-71
2022/09/02 04:56:55;;;;;;;2.67;0.40;;;16.20;86.20;;;;;;5028304;28;20382;-71
2022/09/02 04:59:21;;;;;;;2.30;0.40;;;16.10;86.10;;;;;;5027583;28;20060;-70
2022/09/02 05:01:46;;;;;;;2.25;0.13;;;16.10;86.20;;;;;;5028895;28;20100;-69
2022/09/02 05:04:12;;;;;;;0.70;0.20;;;16.10;86.70;;;;;;5028661;28;20034;-72
2022/09/02 05:06:38;;;;;;;4.40;0.32;;;16.10;86.30;;;;;;5031815;28;20079;-70
2022/09/02 05:09:07;;;;;;;1.98;0.47;;;16.20;86.20;;;;;;5028508;28;20083;-69
2022/09/02 05:11:34;;;;;;;0.75;0.20;;;16.20;86.30;;;;;;5028621;28;20541;-71
2022/09/02 05:14:03;;;;;;;1.65;0.90;;;16.20;86.30;;;;;;5024031;28;20033;-71
2022/09/02 05:16:36;;;;;;;3.92;0.30;;;16.30;86.20;;;;;;5028376;28;20022;-71
2022/09/02 05:19:04;;;;;;;2.65;0.25;;;16.30;86.20;;;;;;5027972;28;20037;-70
2022/09/02 05:21:30;;;;;;;0.65;0.20;;;16.30;86.20;;;;;;5026844;28;20478;-71
2022/09/02 05:23:57;;;;;;;1.33;0.38;;;16.30;86.00;;;;;;5026246;28;20026;-71
2022/09/02 05:26:23;;;;;;;1.45;0.30;;;16.40;86.00;;;;;;5027638;28;20040;-70
2022/09/02 05:28:49;;;;;;;2.97;0.43;;;16.40;86.00;;;;;;5026398;28;20045;-70
2022/09/02 05:31:18;;;;;;;0.57;0.20;;;16.30;86.00;;;;;;5029244;28;20034;-71
2022/09/02 05:33:44;;;;;;;2.97;0.20;;;16.30;86.10;;;;;;5034072;28;20127;-71
2022/09/02 05:36:17;;;;;;;2.55;0.20;;;16.30;86.30;;;;;;5035434;28;20060;-71
2022/09/02 05:38:44;;;;;;;2.40;0.60;;;16.40;86.10;;;;;;5030178;28;20117;-70
2022/09/02 05:41:13;;;;;;;0.47;0.10;;;16.40;85.90;;;;;;5032589;28;20030;-71
2022/09/02 05:43:40;;;;;;;1.00;0.30;;;16.40;86.10;;;;;;5026871;28;20029;-71
2022/09/02 05:46:08;;;;;;;1.33;0.28;;;16.40;86.50;;;;;;5026405;28;20037;-69
2022/09/02 05:51:21;;;;;;;1.95;0.70;;;16.50;86.00;;;;;;5023531;28;20040;-69
2022/09/02 05:53:47;;;;;;;3.72;0.40;;;16.50;86.10;;;;;;5027012;28;20041;-70
2022/09/02 05:56:12;;;;;;;2.63;0.20;;;16.50;86.20;;;;;;5026457;28;20573;-71
2022/09/02 05:58:38;;;;;;;2.30;0.50;;;16.50;86.00;;;;;;5027268;28;20038;-71
2022/09/02 06:01:12;;;;;;;2.63;0.20;;;16.60;86.00;;;;;;5026427;28;20045;-68
2022/09/02 06:03:38;;;;;;;1.95;0.30;;;16.50;86.00;;;;;;5021236;28;20045;-70
2022/09/02 06:06:04;;;;;;;4.20;0.60;;;16.60;86.10;;;;;;5018494;28;20030;-68
2022/09/02 06:08:31;;;;;;;1.48;0.20;;;16.70;85.90;;;;;;5026843;28;20056;-71
2022/09/02 06:10:59;;;;;;;3.50;0.60;;;16.90;85.40;;;;;;5026094;28;20521;-71
2022/09/02 06:13:26;;;;;;;1.05;0.30;;;17.00;85.10;;;;;;5025243;28;20042;-71
2022/09/02 06:15:51;;;;;;;1.58;0.25;;;17.20;84.60;;;;;;5027002;28;20061;-70
2022/09/02 06:18:17;;;;;;;0.85;0.30;;;17.30;84.30;;;;;;5026287;28;20060;-71
2022/09/02 06:20:45;;;;;;;5.22;0.20;;;17.30;84.60;;;;;;5026864;28;20029;-69
2022/09/02 06:23:13;;;;;;;2.00;0.85;;;17.30;84.50;;;;;;5026370;28;20052;-71
2022/09/02 06:25:40;;;;;;;0.30;0.10;;;17.20;85.30;;;;;;5034128;28;20037;-70
2022/09/02 06:28:06;;;;;;;3.13;0.22;;;17.20;85.10;;;;;;5027623;28;20041;-72
2022/09/02 06:30:33;;;;;;;2.33;0.63;;;17.20;84.80;;;;;;5030664;28;20060;-72
2022/09/02 06:33:00;;;;;;;3.35;0.52;;;17.40;84.70;;;;;;5025971;28;20172;-71
2022/09/02 06:35:26;;;;;;;1.90;0.52;;;17.50;85.10;;;;;;5026962;28;20034;-72
2022/09/02 06:37:51;;;;;;;4.78;0.68;;;17.70;84.20;;;;;;5027414;28;20040;-71
2022/09/02 06:40:18;;;;;;;1.50;0.20;;;17.90;83.90;;;;;;5025950;28;20034;-67
2022/09/02 06:42:43;;;;;;;5.50;0.55;;;18.10;83.50;;;;;;5025749;28;20029;-71
2022/09/02 06:45:09;;;;;;;2.67;0.47;;;18.40;83.20;;;;;;5024721;28;20037;-71
2022/09/02 06:47:35;;;;;;;2.22;0.30;;;18.60;82.60;;;;;;5026709;28;20041;-71
2022/09/02 06:50:01;;;;;;;1.88;0.40;;;18.80;81.60;;;;;;5026345;28;20038;-72
2022/09/02 06:52:27;;;;;;;4.82;0.60;;;19.00;81.20;;;;;;5023086;28;20037;-71
2022/09/02 06:54:53;;;;;;;2.78;0.30;;;19.00;81.00;;;;;;5026450;28;20045;-69
2022/09/02 06:57:19;;;;;;;4.05;0.30;;;19.00;81.20;;;;;;5024088;28;20033;-71
2022/09/02 06:59:46;;;;;;;7.45;0.93;;;19.00;81.50;;;;;;5026471;28;20042;-73
2022/09/02 07:02:12;;;;;;;3.65;0.57;;;18.90;81.30;;;;;;5025534;28;20064;-71
2022/09/02 07:07:23;;;;;;;4.95;0.40;;;18.80;82.20;;;;;;5024518;28;20183;-70
2022/09/02 07:09:49;;;;;;;4.60;0.60;;;18.80;82.10;;;;;;5025473;28;20120;-71
2022/09/02 07:12:16;;;;;;;2.70;0.40;;;18.60;82.30;;;;;;5023265;28;20395;-71
2022/09/02 07:14:42;;;;;;;10.77;1.05;;;18.60;82.70;;;;;;5025492;28;20041;-70
2022/09/02 07:17:11;;;;;;;1.05;0.38;;;18.60;82.70;;;;;;5022296;28;20029;-71
2022/09/02 07:19:37;;;;;;;3.63;0.43;;;18.60;82.80;;;;;;5025219;28;20110;-71
2022/09/02 07:22:04;;;;;;;3.63;0.20;;;18.60;83.30;;;;;;5031145;28;20065;-71
2022/09/02 07:24:29;;;;;;;0.95;0.40;;;18.50;83.40;;;;;;5032525;28;20083;-70
2022/09/02 07:26:55;;;;;;;5.65;0.50;;;18.50;83.20;;;;;;5033395;28;20445;-71
2022/09/02 07:29:20;;;;;;;3.47;0.68;;;18.60;83.50;;;;;;5030291;28;20040;-69
2022/09/02 07:31:47;;;;;;;4.45;0.47;;;18.50;83.80;;;;;;5030624;28;20029;-71
2022/09/02 07:34:13;;;;;;;5.90;0.40;;;18.60;83.70;;;;;;5030034;28;20029;-71
2022/09/02 07:36:40;;;;;;;2.72;0.55;;;18.70;84.20;;;;;;5031745;28;20037;-71
2022/09/02 07:39:08;;;;;;;1.90;0.40;;;18.80;83.50;;;;;;5025368;28;20030;-69
2022/09/02 07:41:34;;;;;;;1.13;0.28;;;18.90;83.60;;;;;;5024931;28;20033;-70
2022/09/02 07:44:00;;;;;;;5.07;0.47;;;19.00;83.40;;;;;;5022004;28;20036;-72
2022/09/02 07:46:28;;;;;;;2.50;0.50;;;19.10;83.00;;;;;;5025694;28;20033;-71
2022/09/02 07:48:57;;;;;;;2.40;0.20;;;19.20;83.00;;;;;;5032393;28;20742;-70
2022/09/02 07:51:23;;;;;;;3.35;0.30;;;19.30;83.50;;;;;;5030182;28;22777;-70
2022/09/02 07:53:50;;;;;;;1.52;0.22;;;19.40;82.80;;;;;;5029659;28;20152;-71
2022/09/02 07:56:16;;;;;;;2.53;0.30;;;19.50;82.70;;;;;;5024222;28;20421;-70
2022/09/02 07:58:43;;;;;;;6.40;0.52;;;19.70;82.40;;;;;;5025847;28;20133;-71
2022/09/02 08:01:09;;;;;;;8.55;1.10;;;19.70;82.60;;;;;;5023788;28;20030;-70
2022/09/02 08:03:37;;;;;;;10.57;0.60;;;19.80;82.80;;;;;;5017949;28;20125;-71
2022/09/02 08:06:03;;;;;;;2.92;0.63;;;19.80;82.40;;;;;;5023952;28;20040;-71
2022/09/02 08:08:28;;;;;;;1.33;0.20;;;19.90;81.90;;;;;;5019134;28;20029;-71
2022/09/02 08:10:54;;;;;;;5.32;0.45;;;19.90;82.20;;;;;;5023760;28;20030;-70
2022/09/02 08:13:21;;;;;;;3.45;0.40;;;19.90;81.90;;;;;;5023416;28;20037;-70
2022/09/02 08:15:47;;;;;;;0.85;0.30;;;20.00;82.40;;;;;;5024036;28;20504;-70
2022/09/02 08:18:13;;;;;;;3.10;0.40;;;19.90;82.50;;;;;;5018475;28;20030;-70
2022/09/02 08:20:38;;;;;;;1.77;0.40;;;20.00;82.50;;;;;;5019991;28;20041;-70
2022/09/02 08:23:05;;;;;;;4.53;0.47;;;19.90;82.20;;;;;;5019135;28;20046;-69
2022/09/02 08:25:34;;;;;;;4.10;0.60;;;20.00;82.40;;;;;;5020751;28;20410;-70
2022/09/02 08:28:00;;;;;;;0.77;0.30;;;20.00;82.60;;;;;;5020182;28;20509;-71
2022/09/02 08:30:26;;;;;;;6.75;0.40;;;20.10;83.00;;;;;;5021270;28;20037;-69
2022/09/02 08:32:52;;;;;;;1.58;0.20;;;20.20;82.90;;;;;;5023505;28;20064;-70
2022/09/02 08:35:17;;;;;;;2.90;0.60;;;20.20;83.80;;;;;;5019373;28;20036;-70
2022/09/02 08:37:43;;;;;;;5.45;0.50;;;20.40;83.50;;;;;;5021218;28;20041;-71
2022/09/02 08:40:18;;;;;;;7.00;0.43;;;20.60;82.20;;;;;;5020613;28;20103;-69
2022/09/02 08:42:50;;;;;;;4.40;0.80;;;20.70;82.10;;;;;;5022779;28;20490;-71
2022/09/02 08:45:26;;;;;;;2.10;0.45;;;20.80;81.70;;;;;;5023658;28;20117;-68
2022/09/02 08:48:03;;;;;;;2.60;0.30;;;20.80;81.80;;;;;;5025214;28;20063;-71
2022/09/02 08:50:31;;;;;;;2.88;0.50;;;20.90;81.80;;;;;;5021488;28;20132;-70
2022/09/02 08:53:09;;;;;;;1.95;0.57;;;21.00;83.40;;;;;;5023053;28;20083;-70
2022/09/02 08:55:54;;;;;;;3.30;0.50;;;21.20;82.30;;;;;;5023740;28;20049;-71
2022/09/02 08:58:23;;;;;;;2.03;0.45;;;21.40;82.00;;;;;;5024978;28;20050;-70
2022/09/02 09:01:08;;;;;;;1.50;0.45;;;21.50;81.00;;;;;;5020428;28;20033;-69
2022/09/02 09:03:47;;;;;;;2.28;0.57;;;21.60;81.70;;;;;;5016978;28;20490;-70
2022/09/02 09:06:40;;;;;;;6.03;0.60;;;21.80;80.50;;;;;;5022054;28;20037;-70
2022/09/02 09:09:39;;;;;;;4.88;0.60;;;21.90;79.50;;;;;;5023581;28;20029;-69
2022/09/02 09:12:11;;;;;;;1.08;0.43;;;22.00;79.00;;;;;;5022229;28;20561;-70
2022/09/02 09:15:15;;;;;;;3.08;0.40;;;21.90;79.40;;;;;;5018211;28;20128;-70
2022/09/02 09:17:58;;;;;;;1.17;0.50;;;21.90;79.60;;;;;;5020213;28;20044;-69
2022/09/02 09:20:27;;;;;;;1.38;0.40;;;21.90;79.00;;;;;;5019628;28;20049;-70
2022/09/02 09:22:58;;;;;;;3.25;0.47;;;21.90;80.30;;;;;;5019625;28;20064;-70
2022/09/02 09:25:28;;;;;;;4.05;1.52;;;21.90;80.90;;;;;;5022056;28;20038;-67
2022/09/02 09:27:55;;;;;;;1.88;0.40;;;22.00;80.10;;;;;;5021896;28;20029;-69
2022/09/02 09:30:22;;;;;;;3.88;0.60;;;22.10;81.00;;;;;;5013080;28;20045;-70
2022/09/02 09:32:56;;;;;;;10.02;0.80;;;22.10;80.40;;;;;;5023189;28;20033;-69
2022/09/02 09:35:23;;;;;;;1.20;0.52;;;22.20;80.30;;;;;;5025015;28;20057;-71
2022/09/02 09:37:53;;;;;;;4.53;0.43;;;22.20;80.00;;;;;;5025980;28;20025;-71
2022/09/02 09:40:21;;;;;;;2.53;0.70;;;22.20;80.60;;;;;;5026030;28;20048;-69
2022/09/02 09:43:05;;;;;;;5.22;0.50;;;22.30;79.80;;;;;;5024612;28;20038;-70
2022/09/02 09:45:36;;;;;;;4.80;0.65;;;22.30;80.40;;;;;;5023737;28;20079;-70
2022/09/02 09:48:30;;;;;;;2.67;0.60;;;22.30;80.10;;;;;;5026971;28;20033;-71
2022/09/02 09:50:56;;;;;;;3.83;0.80;;;22.50;79.70;;;;;;5022005;28;20088;-70
2022/09/02 09:53:27;;;;;;;3.20;0.60;;;22.60;80.40;;;;;;5025263;28;20452;-71
2022/09/02 09:56:03;;;;;;;2.45;0.63;;;22.80;79.30;;;;;;5023357;28;20048;-70
2022/09/02 09:58:35;;;;;;;3.65;0.77;;;22.80;80.00;;;;;;5023160;28;20040;-70
2022/09/02 10:01:17;;;;;;;7.53;0.50;;;22.90;79.00;;;;;;5021469;28;20042;-69
2022/09/02 10:04:08;;;;;;;2.38;0.80;;;22.90;79.90;;;;;;5020043;28;20051;-69
2022/09/02 10:06:43;;;;;;;;;;;23.00;78.80;;;;;;5022906;28;20501;-68
2022/09/02 10:09:18;;;;;;;1.98;0.75;;;23.00;79.10;;;;;;5024050;28;19923;-70
2022/09/02 10:11:55;;;;;;;5.00;1.17;;;23.00;79.10;;;;;;5024620;28;20502;-70
2022/09/02 10:14:22;;;;;;;1.95;0.50;;;23.10;78.70;;;;;;5014389;28;20075;-71
2022/09/02 10:17:03;;;;;;;3.70;0.70;;;23.10;78.60;;;;;;5022031;28;20065;-72
2022/09/02 10:19:43;;;;;;;0.93;0.50;;;23.10;78.90;;;;;;5021036;28;20075;-73
2022/09/02 10:22:18;;;;;;;5.53;0.77;;;23.20;79.30;;;;;;5023508;28;20029;-70
2022/09/02 10:25:18;;;;;;;9.65;0.55;;;23.20;78.60;;;;;;5026070;28;20087;-70
2022/09/02 10:27:50;;;;;;;;;;;23.40;78.50;;;;;;5025560;28;20029;-72
2022/09/02 10:30:20;;;;;;;3.03;0.60;;;23.50;78.70;;;;;;5024560;28;19966;-72
2022/09/02 10:32:57;;;;;;;3.83;0.60;;;23.50;78.50;;;;;;5025736;28;20037;-72
2022/09/02 10:35:42;;;;;;;3.42;0.80;;;23.60;78.70;;;;;;5021467;28;20037;-72
2022/09/02 10:38:28;;;;;;;5.07;0.60;;;23.60;78.30;;;;;;5024074;28;20030;-71
2022/09/02 10:41:19;;;;;;;3.85;0.73;;;23.80;78.70;;;;;;5022486;28;20041;-72
2022/09/02 10:43:53;;;;;;;2.92;0.38;;;23.90;78.60;;;;;;5024153;28;20056;-72
2022/09/02 10:46:23;;;;;;;2.75;0.40;;;24.00;78.30;;;;;;5025090;28;20183;-72
2022/09/02 10:49:12;;;;;;;2.05;0.77;;;24.10;77.40;;;;;;5024741;28;20033;-72
2022/09/02 10:51:58;;;;;;;3.63;0.63;;;24.20;77.70;;;;;;5022853;28;20610;-72
2022/09/02 10:54:32;;;;;;;3.92;0.60;;;24.30;77.30;;;;;;5020505;28;21066;-72
2022/09/02 10:57:09;;;;;;;1.48;0.40;;;24.30;76.60;;;;;;5024583;28;20037;-72
2022/09/02 10:59:46;;;;;;;2.45;0.70;;;24.30;77.30;;;;;;5025314;28;20045;-73
2022/09/02 11:02:18;;;;;;;1.65;0.50;;;24.40;76.70;;;;;;5024864;28;20037;-71
2022/09/02 11:04:55;;;;;;;4.82;0.68;;;24.30;78.20;;;;;;5024348;28;20033;-72
2022/09/02 11:07:28;;;;;;;2.58;0.75;;;24.40;76.00;;;;;;5019747;28;20033;-72
2022/09/02 11:10:03;;;;;;;3.13;0.60;;;24.30;77.10;;;;;;5022496;28;20513;-69
2022/09/02 11:12:38;;;;;;;4.65;0.50;;;24.40;76.80;;;;;;5025469;28;20033;-72
2022/09/02 11:15:25;;;;;;;8.48;1.25;;;24.40;77.50;;;;;;5024004;28;20075;-72
2022/09/02 11:18:03;;;;;;;2.60;0.63;;;24.50;77.80;;;;;;5021186;28;20029;-72
2022/09/02 11:21:08;;;;;;;7.90;0.90;;;24.60;76.70;;;;;;5023331;28;20037;-71
2022/09/02 11:23:45;;;;;;;4.97;1.40;;;24.60;75.80;;;;;;4995058;28;20031;-72
2022/09/02 11:26:16;;;;;;;4.13;1.05;;;24.50;76.10;;;;;;5024207;28;20032;-70
2022/09/02 11:29:06;;;;;;;5.95;0.60;;;24.50;75.60;;;;;;5026388;28;20056;-72
2022/09/02 11:32:01;;;;;;;9.77;0.93;;;24.50;76.00;;;;;;5023268;28;20391;-72
2022/09/02 11:34:33;;;;;;;2.17;0.57;;;24.50;76.10;;;;;;5020764;28;20576;-71
2022/09/02 11:37:13;;;;;;;3.28;1.13;;;24.50;76.00;;;;;;5025526;28;20041;-72
2022/09/02 11:39:38;;;;;;;0.98;0.50;;;24.50;74.80;;;;;;5024540;28;20057;-72
2022/09/02 11:42:28;;;;;;;5.28;0.60;;;24.50;74.60;;;;;;5023257;28;20119;-72
2022/09/02 11:45:16;;;;;;;7.22;0.88;;;24.50;75.60;;;;;;5021820;28;20038;-72
2022/09/02 11:48:06;;;;;;;3.10;0.82;;;24.50;75.50;;;;;;5024783;28;20040;-69
2022/09/02 11:50:53;;;;;;;3.08;0.60;;;24.60;74.50;;;;;;5020958;28;20030;-70
2022/09/02 11:53:25;;;;;;;3.13;0.70;;;24.50;74.80;;;;;;5019208;28;20096;-71
2022/09/02 11:55:58;;;;;;;0.70;0.30;;;24.50;73.40;;;;;;5020335;28;20559;-72
2022/09/02 11:58:38;;;;;;;2.53;1.10;;;24.50;74.90;;;;;;5024159;28;20079;-72
2022/09/02 12:01:15;;;;;;;4.70;0.70;;;24.60;74.40;;;;;;5024303;28;20083;-73
2022/09/02 12:04:04;;;;;;;3.53;0.57;;;24.60;73.90;;;;;;5023694;28;20514;-72
2022/09/02 12:06:30;;;;;;;1.92;0.57;;;24.70;72.90;;;;;;5022011;28;20057;-73
2022/09/02 12:08:59;;;;;;;1.95;0.38;;;24.70;72.70;;;;;;5024982;28;20115;-70
2022/09/02 12:11:37;;;;;;;1.88;0.60;;;24.70;71.60;;;;;;5021834;28;20044;-72
2022/09/02 12:14:03;;;;;;;2.75;0.50;;;24.70;72.30;;;;;;5020893;28;20037;-73
2022/09/02 12:16:29;;;;;;;4.47;1.05;;;24.70;71.30;;;;;;5024588;28;20041;-73
2022/09/02 12:18:56;;;;;;;1.75;0.50;;;24.70;72.00;;;;;;5024745;28;20068;-71
2022/09/02 12:21:26;;;;;;;1.95;0.50;;;24.70;72.30;;;;;;5023241;28;20477;-72
2022/09/02 12:23:52;;;;;;;1.25;0.70;;;24.70;72.20;;;;;;5022817;28;20132;-72
2022/09/02 12:26:23;;;;;;;2.05;0.35;;;24.70;72.00;;;;;;5023306;28;20038;-72
2022/09/02 12:28:50;;;;;;;2.45;0.73;;;24.80;72.20;;;;;;5021250;28;20063;-72
2022/09/02 12:31:43;;;;;;;1.10;0.30;;;24.70;72.90;;;;;;5021535;28;20032;-72
2022/09/02 12:34:23;;;;;;;1.83;0.88;;;24.80;70.80;;;;;;5020923;28;20055;-72
2022/09/02 12:36:54;;;;;;;3.05;0.50;;;24.80;69.30;;;;;;5024558;28;20040;-73
2022/09/02 12:39:22;;;;;;;3.78;0.50;;;24.90;68.40;;;;;;5023432;28;20127;-72
2022/09/02 12:42:06;;;;;;;3.88;0.50;;;24.90;68.30;;;;;;5022611;28;20042;-72
2022/09/02 12:45:10;;;;;;;2.25;0.22;;;25.00;68.20;;;;;;5023351;28;20033;-71
2022/09/02 12:47:45;;;;;;;4.55;0.43;;;25.00;67.20;;;;;;5017643;28;20030;-72
2022/09/02 12:50:24;;;;;;;3.03;0.85;;;25.10;66.30;;;;;;5021737;28;20698;-70
2022/09/02 12:52:52;;;;;;;2.63;0.50;;;25.20;66.70;;;;;;5019682;28;20065;-72
2022/09/02 12:55:27;;;;;;;2.45;0.77;;;25.30;66.70;;;;;;5022547;28;20029;-69
2022/09/02 12:58:13;;;;;;;2.67;0.50;;;25.20;69.10;;;;;;5023357;28;20406;-72
2022/09/02 13:00:44;;;;;;;5.25;0.57;;;25.30;69.50;;;;;;5022812;28;20494;-72
2022/09/02 13:03:28;;;;;;;5.50;0.77;;;25.40;70.10;;;;;;5019949;28;20128;-72
2022/09/02 13:06:20;;;;;;;4.20;0.75;;;25.50;68.30;;;;;;5018827;28;20049;-72
2022/09/02 13:09:09;;;;;;;6.85;0.60;;;25.50;68.50;;;;;;5019414;28;20045;-72